createdAt,value
2022-11-03T00:02:09.578Z,1.02
2022-11-03T00:05:12.083Z,1.00
2022-11-03T00:08:14.985Z,0.98
2022-11-03T00:11:17.168Z,1.05
2022-11-03T00:14:19.359Z,0.90
2022-11-03T00:17:22.347Z,1.10
2022-11-03T00:20:25.516Z,1.13
2022-11-03T00:23:27.886Z,0.90
2022-11-03T00:26:30.441Z,1.20
2022-11-03T00:29:32.960Z,0.80
2022-11-03T00:32:35.936Z,1.10
2022-11-03T00:35:38.623Z,1.20
2022-11-03T00:38:41.826Z,1.00
2022-11-03T00:41:44.521Z,1.20
2022-11-03T00:44:47.622Z,1.10
2022-11-03T00:47:50.341Z,1.17
2022-11-03T00:50:52.770Z,1.27
2022-11-03T00:53:54.817Z,1.25
2022-11-03T00:56:57.472Z,1.17
2022-11-03T01:00:00.015Z,1.10
2022-11-03T01:03:02.712Z,0.98
2022-11-03T01:09:22.788Z,1.25
2022-11-03T01:12:25.217Z,1.10
2022-11-03T01:15:27.642Z,1.10
2022-11-03T01:18:30.527Z,1.00
2022-11-03T01:21:33.733Z,0.90
2022-11-03T01:24:36.484Z,1.17
2022-11-03T01:27:39.372Z,1.08
2022-11-03T01:30:41.867Z,1.05
2022-11-03T01:33:44.967Z,1.38
2022-11-03T01:36:48.545Z,1.10
2022-11-03T01:39:50.945Z,1.08
2022-11-03T01:42:53.515Z,1.00
2022-11-03T01:45:56.088Z,0.95
2022-11-03T01:48:58.662Z,1.27
2022-11-03T01:52:01.926Z,1.15
2022-11-03T01:55:05.259Z,0.90
2022-11-03T01:58:08.899Z,1.23
2022-11-03T02:01:12.083Z,0.90
2022-11-03T02:04:15.270Z,1.17
2022-11-03T02:07:18.076Z,1.20
2022-11-03T02:10:20.513Z,1.00
2022-11-03T02:13:23.206Z,1.08
2022-11-03T02:16:25.589Z,1.00
2022-11-03T02:19:27.702Z,1.00
2022-11-03T02:22:29.722Z,0.95
2022-11-03T02:25:32.706Z,1.00
2022-11-03T02:28:35.571Z,1.10
2022-11-03T02:31:38.027Z,1.13
2022-11-03T02:34:40.970Z,1.23
2022-11-03T02:37:43.109Z,1.05
2022-11-03T02:40:45.786Z,1.00
2022-11-03T02:43:47.899Z,1.02
2022-11-03T02:46:50.521Z,1.30
2022-11-03T02:49:53.146Z,1.10
2022-11-03T02:52:55.513Z,1.27
2022-11-03T02:55:59.260Z,0.88
2022-11-03T02:59:01.681Z,1.10
2022-11-03T03:02:04.703Z,0.95
2022-11-03T03:05:07.266Z,1.20
2022-11-03T03:08:10.252Z,1.27
2022-11-03T03:11:13.035Z,1.20
2022-11-03T03:14:15.752Z,1.05
2022-11-03T03:17:18.517Z,1.00
2022-11-03T03:20:21.518Z,1.10
2022-11-03T03:23:24.332Z,1.10
2022-11-03T03:26:26.895Z,1.00
2022-11-03T03:29:29.995Z,1.08
2022-11-03T03:32:33.198Z,1.20
2022-11-03T03:35:35.858Z,1.10
2022-11-03T03:38:38.192Z,0.90
2022-11-03T03:41:41.388Z,1.02
2022-11-03T03:44:44.290Z,1.10
2022-11-03T03:47:46.870Z,1.15
2022-11-03T03:50:50.070Z,1.10
2022-11-03T03:53:53.030Z,1.00
2022-11-03T03:56:55.496Z,1.00
2022-11-03T03:59:58.697Z,0.93
2022-11-03T04:03:01.067Z,1.00
2022-11-03T04:06:03.718Z,1.00
2022-11-03T04:09:06.310Z,1.10
2022-11-03T04:12:08.734Z,1.02
2022-11-03T04:15:11.268Z,1.05
2022-11-03T04:18:14.070Z,1.30
2022-11-03T04:21:16.998Z,1.20
2022-11-03T04:24:19.380Z,1.00
2022-11-03T04:27:21.911Z,0.98
2022-11-03T04:30:25.644Z,0.80
2022-11-03T04:33:28.063Z,1.02
2022-11-03T04:36:30.689Z,1.02
2022-11-03T04:39:33.291Z,1.10
2022-11-03T04:42:36.324Z,0.85
2022-11-03T04:45:38.447Z,1.10
2022-11-03T04:48:41.062Z,1.00
2022-11-03T04:51:43.978Z,1.20
2022-11-03T04:54:46.807Z,1.02
2022-11-03T04:57:49.951Z,1.10
2022-11-03T05:00:52.972Z,1.08
2022-11-03T05:03:55.526Z,1.05
2022-11-03T05:06:58.070Z,1.00
2022-11-03T05:10:06.580Z,1.10
2022-11-03T05:13:15.018Z,1.33
2022-11-03T05:16:17.236Z,1.30
2022-11-03T05:19:19.408Z,1.05
2022-11-03T05:22:21.905Z,1.00
2022-11-03T05:25:24.464Z,0.80
2022-11-03T05:28:27.551Z,1.02
2022-11-03T05:31:30.659Z,1.10
2022-11-03T05:34:33.823Z,0.98
2022-11-03T05:37:36.779Z,0.90
2022-11-03T05:40:39.942Z,1.10
2022-11-03T05:43:42.722Z,1.02
2022-11-03T05:46:45.496Z,1.00
2022-11-03T05:49:48.032Z,0.82
2022-11-03T05:52:50.548Z,0.90
2022-11-03T05:55:54.079Z,1.20
2022-11-03T05:58:57.406Z,0.98
2022-11-03T06:02:00.796Z,1.08
2022-11-03T06:05:04.683Z,1.02
2022-11-03T06:08:08.368Z,0.90
2022-11-03T06:11:11.776Z,0.90
2022-11-03T06:14:16.629Z,0.82
2022-11-03T06:17:22.284Z,0.90
2022-11-03T06:20:25.442Z,0.90
2022-11-03T06:23:27.817Z,0.90
2022-11-03T06:26:30.477Z,1.00
2022-11-03T06:29:33.054Z,0.98
2022-11-03T06:32:35.938Z,1.00
2022-11-03T06:35:38.292Z,0.82
2022-11-03T06:38:40.930Z,0.90
2022-11-03T06:41:43.794Z,1.00
2022-11-03T06:44:46.407Z,0.93
2022-11-03T06:47:48.777Z,0.90
2022-11-03T06:50:51.684Z,1.00
2022-11-03T06:53:54.561Z,1.00
2022-11-03T06:56:56.953Z,0.85
2022-11-03T07:00:13.375Z,1.00
2022-11-03T07:03:21.473Z,1.00
2022-11-03T07:06:23.715Z,0.90
2022-11-03T07:09:26.385Z,1.00
2022-11-03T07:12:28.987Z,0.93
2022-11-03T07:15:31.390Z,0.77
2022-11-03T07:18:34.961Z,1.10
2022-11-03T07:21:37.916Z,1.00
2022-11-03T07:24:40.612Z,1.20
2022-11-03T07:27:43.225Z,0.90
2022-11-03T07:30:45.388Z,1.10
2022-11-03T07:33:48.395Z,1.00
2022-11-03T07:36:55.327Z,1.00
2022-11-03T07:39:58.582Z,0.90
2022-11-03T07:43:01.042Z,1.27
2022-11-03T07:46:03.506Z,0.90
2022-11-03T07:49:06.616Z,1.02
2022-11-03T07:52:09.067Z,1.20
2022-11-03T07:55:11.212Z,1.00
2022-11-03T07:58:13.641Z,1.15
2022-11-03T08:01:16.081Z,0.90
2022-11-03T08:04:19.113Z,1.10
2022-11-03T08:07:21.954Z,1.05
2022-11-03T08:10:24.582Z,0.90
2022-11-03T08:13:27.160Z,0.90
2022-11-03T08:16:29.685Z,0.95
2022-11-03T08:19:33.286Z,1.20
2022-11-03T08:22:35.782Z,1.00
2022-11-03T08:25:38.182Z,1.23
2022-11-03T08:28:40.756Z,1.30
2022-11-03T08:31:42.846Z,1.00
2022-11-03T08:34:44.966Z,1.05
2022-11-03T08:37:47.955Z,1.00
2022-11-03T08:40:54.312Z,1.15
2022-11-03T08:43:57.558Z,1.27
2022-11-03T08:46:59.716Z,1.05
2022-11-03T08:50:01.835Z,0.88
2022-11-03T08:53:04.777Z,1.27
2022-11-03T08:56:10.526Z,1.13
2022-11-03T08:59:19.250Z,1.30
2022-11-03T09:02:21.874Z,1.00
2022-11-03T09:05:24.450Z,1.27
2022-11-03T09:11:49.423Z,1.10
2022-11-03T09:14:53.125Z,1.20
2022-11-03T09:17:56.188Z,1.00
2022-11-03T09:20:59.076Z,1.20
2022-11-03T09:24:01.447Z,1.30
2022-11-03T09:27:03.943Z,1.40
2022-11-03T09:30:13.211Z,1.10
2022-11-03T09:33:16.389Z,1.10
2022-11-03T09:36:19.191Z,1.20
2022-11-03T09:39:21.791Z,0.90
2022-11-03T09:42:24.665Z,1.10
2022-11-03T09:45:27.330Z,1.15
2022-11-03T09:48:29.475Z,1.15
2022-11-03T09:51:31.634Z,1.13
2022-11-03T09:54:34.188Z,0.90
2022-11-03T09:57:36.772Z,1.00
2022-11-03T10:00:39.639Z,1.10
2022-11-03T10:03:42.927Z,1.00
2022-11-03T10:06:45.456Z,1.20
2022-11-03T10:09:47.651Z,0.90
2022-11-03T10:12:50.223Z,1.02
2022-11-03T10:15:52.325Z,1.08
2022-11-03T10:18:55.180Z,1.10
2022-11-03T10:21:58.414Z,1.08
2022-11-03T10:25:00.793Z,1.30
2022-11-03T10:28:02.948Z,1.20
2022-11-03T10:31:13.255Z,1.10
2022-11-03T10:34:16.480Z,0.80
2022-11-03T10:37:19.336Z,1.17
2022-11-03T10:40:46.821Z,1.10
2022-11-03T10:43:44.042Z,1.00
2022-11-03T10:46:51.023Z,1.17
2022-11-03T10:49:53.339Z,1.20
2022-11-03T10:52:55.447Z,1.25
2022-11-03T10:55:57.931Z,1.05
2022-11-03T10:59:00.262Z,1.10
2022-11-03T11:02:03.145Z,1.20
2022-11-03T11:05:06.144Z,1.15
2022-11-03T11:08:08.884Z,1.17
2022-11-03T11:11:12.147Z,1.40
2022-11-03T11:14:15.014Z,1.45
2022-11-03T11:17:17.498Z,1.30
2022-11-03T11:20:20.242Z,1.45
2022-11-03T11:23:22.548Z,1.15
2022-11-03T11:26:25.123Z,1.27
2022-11-03T11:29:27.810Z,1.40
2022-11-03T11:32:30.471Z,1.30
2022-11-03T11:35:33.038Z,1.27
2022-11-03T11:38:35.948Z,1.40
2022-11-03T11:41:38.960Z,1.25
2022-11-03T11:44:42.318Z,1.30
2022-11-03T11:47:48.518Z,1.38
2022-11-03T11:50:51.402Z,1.25
2022-11-03T11:54:09.942Z,1.48
2022-11-03T11:57:15.907Z,1.20
2022-11-03T12:00:18.407Z,1.20
2022-11-03T12:03:21.402Z,1.08
2022-11-03T12:06:24.736Z,1.30
2022-11-03T12:09:27.303Z,1.30
2022-11-03T12:12:29.885Z,1.30
2022-11-03T12:15:32.887Z,1.38
2022-11-03T12:18:39.144Z,1.13
2022-11-03T12:21:43.269Z,1.08
2022-11-03T12:24:45.441Z,1.10
2022-11-03T12:27:48.014Z,1.33
2022-11-03T12:30:50.741Z,1.42
2022-11-03T12:33:53.348Z,1.17
2022-11-03T12:36:56.453Z,1.15
2022-11-03T12:39:59.150Z,1.20
2022-11-03T12:43:01.702Z,1.17
2022-11-03T12:46:04.602Z,1.00
2022-11-03T12:49:06.992Z,1.38
2022-11-03T12:52:09.640Z,1.17
2022-11-03T12:55:12.292Z,1.02
2022-11-03T12:58:14.451Z,1.20
2022-11-03T13:01:17.186Z,1.27
2022-11-03T13:04:20.235Z,0.90
2022-11-03T13:07:28.999Z,1.10
2022-11-03T13:10:34.067Z,1.00
2022-11-03T13:13:36.639Z,1.30
2022-11-03T13:16:38.654Z,1.20
2022-11-03T13:19:40.992Z,0.90
2022-11-03T13:22:43.482Z,1.10
2022-11-03T13:25:46.360Z,1.00
2022-11-03T13:28:51.414Z,0.85
2022-11-03T13:31:54.078Z,1.10
2022-11-03T13:34:56.390Z,1.10
2022-11-03T13:37:58.575Z,1.00
2022-11-03T13:41:06.899Z,1.23
2022-11-03T13:47:13.445Z,1.40
2022-11-03T13:50:17.349Z,1.35
2022-11-03T14:00:05.394Z,1.00
2022-11-03T14:06:36.591Z,1.20
2022-11-03T14:09:39.528Z,1.00
2022-11-03T14:12:42.365Z,1.13
2022-11-03T14:15:45.063Z,1.00
2022-11-03T14:18:47.906Z,1.35
2022-11-03T14:21:50.338Z,1.02
2022-11-03T14:24:52.950Z,1.10
2022-11-03T14:27:55.442Z,0.90
2022-11-03T14:30:58.729Z,1.10
2022-11-03T14:34:01.598Z,1.20
2022-11-03T14:37:04.246Z,1.00
2022-11-03T14:40:07.442Z,1.40
2022-11-03T14:43:10.967Z,1.17
2022-11-03T14:46:13.974Z,1.10
2022-11-03T14:49:16.558Z,0.93
2022-11-03T14:52:19.282Z,1.05
2022-11-03T14:55:21.806Z,1.08
2022-11-03T14:58:24.724Z,0.93
2022-11-03T15:01:27.371Z,0.98
2022-11-03T15:04:30.158Z,1.02
2022-11-03T15:07:33.136Z,0.95
2022-11-03T15:10:36.964Z,1.02
2022-11-03T15:13:44.052Z,1.23
2022-11-03T15:16:49.197Z,0.93
2022-11-03T15:19:52.180Z,0.90
2022-11-03T15:26:16.681Z,1.00
2022-11-03T15:29:19.880Z,1.33
2022-11-03T15:32:22.369Z,0.90
2022-11-03T15:35:25.388Z,1.13
2022-11-03T15:38:27.926Z,1.20
2022-11-03T15:41:30.641Z,1.10
2022-11-03T15:44:33.461Z,1.05
2022-11-03T15:47:35.662Z,1.25
2022-11-03T15:50:38.605Z,1.35
2022-11-03T15:53:41.096Z,1.00
2022-11-03T15:56:43.348Z,1.10
2022-11-03T15:59:45.925Z,1.10
2022-11-03T16:02:48.224Z,1.10
2022-11-03T16:05:50.913Z,1.10
2022-11-03T16:08:53.451Z,1.23
2022-11-03T16:11:56.352Z,1.20
2022-11-03T16:14:59.247Z,1.10
2022-11-03T16:18:02.083Z,1.00
2022-11-03T16:21:04.960Z,1.23
2022-11-03T16:24:07.788Z,1.08
2022-11-03T16:27:10.585Z,1.10
2022-11-03T16:30:13.025Z,1.20
2022-11-03T16:33:15.894Z,1.30
2022-11-03T16:36:18.665Z,1.10
2022-11-03T16:39:21.416Z,1.05
2022-11-03T16:42:23.839Z,1.10
2022-11-03T16:45:26.730Z,1.52
2022-11-03T16:48:29.335Z,1.10
2022-11-03T16:51:32.775Z,1.10
2022-11-03T16:54:35.414Z,1.20
2022-11-03T16:57:38.105Z,1.17
2022-11-03T17:00:40.761Z,1.50
2022-11-03T17:03:42.895Z,1.02
2022-11-03T17:06:45.058Z,1.13
2022-11-03T17:09:47.649Z,1.20
2022-11-03T17:12:50.221Z,0.98
2022-11-03T17:15:53.156Z,1.30
2022-11-03T17:18:56.359Z,1.00
2022-11-03T17:21:59.267Z,1.00
2022-11-03T17:25:01.928Z,1.20
2022-11-03T17:28:05.214Z,0.95
2022-11-03T17:31:09.119Z,1.20
2022-11-03T17:34:11.870Z,1.00
2022-11-03T17:37:14.000Z,1.30
2022-11-03T17:40:16.569Z,1.20
2022-11-03T17:43:19.144Z,1.17
2022-11-03T17:46:21.277Z,1.10
2022-11-03T17:49:24.172Z,1.17
2022-11-03T17:52:28.636Z,1.30
2022-11-03T17:55:31.289Z,1.02
2022-11-03T17:58:33.951Z,1.20
2022-11-03T18:01:36.818Z,1.15
2022-11-03T18:04:39.495Z,1.20
2022-11-03T18:07:42.165Z,1.05
2022-11-03T18:10:44.945Z,1.20
2022-11-03T18:13:47.790Z,1.10
2022-11-03T18:20:42.616Z,1.40
2022-11-03T18:23:45.265Z,1.20
2022-11-03T18:26:47.875Z,1.23
2022-11-03T18:29:50.465Z,1.40
2022-11-03T18:32:53.130Z,1.25
2022-11-03T18:35:55.630Z,1.20
2022-11-03T18:38:58.434Z,1.23
2022-11-03T18:42:01.048Z,1.40
2022-11-03T18:45:04.043Z,1.35
2022-11-03T18:48:07.168Z,1.55
2022-11-03T18:51:10.224Z,1.40
2022-11-03T18:54:13.132Z,1.30
2022-11-03T18:57:15.624Z,1.20
2022-11-03T19:00:18.824Z,1.42
2022-11-03T19:03:22.104Z,1.40
2022-11-03T19:06:24.507Z,1.40
2022-11-03T19:09:27.417Z,1.50
2022-11-03T19:12:33.737Z,1.30
2022-11-03T19:15:39.122Z,1.40
2022-11-03T19:18:41.672Z,1.30
2022-11-03T19:21:44.251Z,1.60
2022-11-03T19:24:46.930Z,1.50
2022-11-03T19:27:49.561Z,1.25
2022-11-03T19:30:57.624Z,1.35
2022-11-03T19:34:00.524Z,1.50
2022-11-03T19:37:03.405Z,1.25
2022-11-03T19:40:05.818Z,1.38
2022-11-03T19:43:08.373Z,1.48
2022-11-03T19:46:11.275Z,1.58
2022-11-03T19:49:13.788Z,1.60
2022-11-03T19:52:17.004Z,1.52
2022-11-03T19:55:19.974Z,1.52
2022-11-03T19:58:23.134Z,1.50
2022-11-03T20:01:26.331Z,1.30
2022-11-03T20:04:29.063Z,1.35
2022-11-03T20:07:32.642Z,1.50
2022-11-03T20:10:36.133Z,1.50
2022-11-03T20:13:38.895Z,1.30
2022-11-03T20:16:41.836Z,1.80
2022-11-03T20:19:44.747Z,1.70
2022-11-03T20:22:48.379Z,1.50
2022-11-03T20:25:51.201Z,1.40
2022-11-03T20:28:53.644Z,1.63
2022-11-03T20:31:56.452Z,1.60
2022-11-03T20:34:59.149Z,1.60
2022-11-03T20:38:01.461Z,1.58
2022-11-03T20:41:03.680Z,1.52
2022-11-03T20:44:06.116Z,1.60
2022-11-03T20:47:09.371Z,1.65
2022-11-03T20:50:11.738Z,1.50
2022-11-03T20:53:13.958Z,1.60
2022-11-03T20:56:19.644Z,1.42
2022-11-03T20:59:22.366Z,1.50
2022-11-03T21:02:25.061Z,1.67
2022-11-03T21:05:27.910Z,1.45
2022-11-03T21:08:30.431Z,1.58
2022-11-03T21:11:33.348Z,1.70
2022-11-03T21:14:35.882Z,1.63
2022-11-03T21:17:38.386Z,1.48
2022-11-03T21:20:40.749Z,1.58
2022-11-03T21:23:43.285Z,1.70
2022-11-03T21:26:45.803Z,1.80
2022-11-03T21:29:58.808Z,1.50
2022-11-03T21:33:02.602Z,1.65
2022-11-03T21:36:05.000Z,1.73
2022-11-03T21:39:07.635Z,1.70
2022-11-03T21:42:10.235Z,1.70
2022-11-03T21:45:12.636Z,1.60
2022-11-03T21:48:15.367Z,1.70
2022-11-03T21:51:18.154Z,1.80
2022-11-03T21:54:20.778Z,1.80
2022-11-03T21:57:23.683Z,1.70
2022-11-03T22:00:26.479Z,1.92
2022-11-03T22:03:29.235Z,1.70
2022-11-03T22:06:32.366Z,1.65
2022-11-03T22:09:35.146Z,1.60
2022-11-03T22:12:38.522Z,1.80
2022-11-03T22:15:40.973Z,1.80
2022-11-03T22:18:44.201Z,1.70
2022-11-03T22:21:46.645Z,1.98
2022-11-03T22:24:49.597Z,1.70
2022-11-03T22:27:52.370Z,1.70
2022-11-03T22:30:55.336Z,1.55
2022-11-03T22:33:57.899Z,1.63
2022-11-03T22:37:00.438Z,1.50
2022-11-03T22:40:03.326Z,1.50
2022-11-03T22:43:05.925Z,1.52
2022-11-03T22:46:09.034Z,1.50
2022-11-03T22:49:12.331Z,1.50
2022-11-03T22:52:15.078Z,1.60
2022-11-03T22:55:17.725Z,1.50
2022-11-03T22:58:20.412Z,1.55
2022-11-03T23:01:22.708Z,1.45
2022-11-03T23:04:24.961Z,1.40
2022-11-03T23:07:31.188Z,1.50
2022-11-03T23:10:34.663Z,1.52
2022-11-03T23:13:36.899Z,1.23
2022-11-03T23:16:39.192Z,1.40
2022-11-03T23:19:41.388Z,1.30
2022-11-03T23:22:44.051Z,1.35
2022-11-03T23:25:47.400Z,1.30
2022-11-03T23:28:50.320Z,1.40
2022-11-03T23:31:53.224Z,1.40
2022-11-03T23:34:56.287Z,1.30
2022-11-03T23:37:59.121Z,1.30
2022-11-03T23:41:01.766Z,1.33
2022-11-03T23:44:04.756Z,1.17
2022-11-03T23:47:06.924Z,1.30
2022-11-03T23:50:09.602Z,1.25
2022-11-03T23:53:12.183Z,1.10
2022-11-03T23:56:15.504Z,1.10
2022-11-03T23:59:17.941Z,1.10
